Map

Track Data

SID SEASON NUMBER BASIN SUBBASIN NAME ISO_TIME NATURE LAT LON WMO_WIND WMO_PRES WMO_AGENCY TRACK_TYPE DIST2LAND LANDFALL IFLAG USA_AGENCY USA_ATCF_ID USA_LAT USA_LON USA_RECORD USA_STATUS USA_WIND USA_PRES USA_SSHS USA_R34_NE USA_R34_SE USA_R34_SW USA_R34_NW USA_R50_NE USA_R50_SE USA_R50_SW USA_R50_NW USA_R64_NE USA_R64_SE USA_R64_SW USA_R64_NW USA_POCI USA_ROCI USA_RMW USA_EYE TOKYO_LAT TOKYO_LON TOKYO_GRADE TOKYO_WIND TOKYO_PRES TOKYO_R50_DIR TOKYO_R50_LONG TOKYO_R50_SHORT TOKYO_R30_DIR TOKYO_R30_LONG TOKYO_R30_SHORT TOKYO_LAND CMA_LAT CMA_LON CMA_CAT CMA_WIND CMA_PRES HKO_LAT HKO_LON HKO_CAT HKO_WIND HKO_PRES NEWDELHI_LAT NEWDELHI_LON NEWDELHI_GRADE NEWDELHI_WIND NEWDELHI_PRES NEWDELHI_CI NEWDELHI_DP NEWDELHI_POCI REUNION_LAT REUNION_LON REUNION_TYPE REUNION_WIND REUNION_PRES REUNION_TNUM REUNION_CI REUNION_RMW REUNION_R34_NE REUNION_R34_SE REUNION_R34_SW REUNION_R34_NW REUNION_R50_NE REUNION_R50_SE REUNION_R50_SW REUNION_R50_NW REUNION_R64_NE REUNION_R64_SE REUNION_R64_SW REUNION_R64_NW BOM_LAT BOM_LON BOM_TYPE BOM_WIND BOM_PRES BOM_TNUM BOM_CI BOM_RMW BOM_R34_NE BOM_R34_SE BOM_R34_SW BOM_R34_NW BOM_R50_NE BOM_R50_SE BOM_R50_SW BOM_R50_NW BOM_R64_NE BOM_R64_SE BOM_R64_SW BOM_R64_NW BOM_ROCI BOM_POCI BOM_EYE BOM_POS_METHOD BOM_PRES_METHOD NADI_LAT NADI_LON NADI_CAT NADI_WIND NADI_PRES WELLINGTON_LAT WELLINGTON_LON WELLINGTON_WIND WELLINGTON_PRES DS824_LAT DS824_LON DS824_STAGE DS824_WIND DS824_PRES TD9636_LAT TD9636_LON TD9636_STAGE TD9636_WIND TD9636_PRES TD9635_LAT TD9635_LON TD9635_WIND TD9635_PRES TD9635_ROCI NEUMANN_LAT NEUMANN_LON NEUMANN_CLASS NEUMANN_WIND NEUMANN_PRES MLC_LAT MLC_LON MLC_CLASS MLC_WIND MLC_PRES USA_GUST BOM_GUST BOM_GUST_PER REUNION_GUST REUNION_GUST_PER USA_SEAHGT USA_SEARAD_NE USA_SEARAD_SE USA_SEARAD_SW USA_SEARAD_NW STORM_SPEED STORM_DIR
1882070S14063 1882 13 SI MM NOT_NAMED 1882-03-11 06:00:00 NR -14.4000 62.5000 reunion spur-split 816 816 _____O________ -1 -14.4000 62.5000 99 9.90000 1 196
1882070S14063 1882 13 SI MM NOT_NAMED 1882-03-11 09:00:00 NR -14.4380 62.4740 spur-split 816 800 _____P________ -1 -14.4380 62.4740 99 1 216
1882070S14063 1882 13 SI MM NOT_NAMED 1882-03-11 12:00:00 NR -14.4843 62.4457 spur-split 800 800 _____P________ -1 -14.4843 62.4457 99 1 209
1882070S14063 1882 13 SI MM NOT_NAMED 1882-03-11 15:00:00 NR -14.5471 62.4129 spur-split 800 792 _____P________ -1 -14.5471 62.4129 99 2 203
1882070S14063 1882 13 SI MM NOT_NAMED 1882-03-11 18:00:00 NR -14.6348 62.3732 spur-split 792 776 _____P________ -1 -14.6348 62.3732 99 2 203
1882070S14063 1882 13 SI MM NOT_NAMED 1882-03-11 21:00:00 NR -14.7557 62.3244 spur-split 767 759 _____P________ -1 -14.7557 62.3244 99 3 200
1882070S14063 1882 13 SI MM NOT_NAMED 1882-03-12 00:00:00 NR -14.9180 62.2642 spur-split 759 735 _____P________ -1 -14.9180 62.2642 99 4 199
1882070S14063 1882 13 SI MM NOT_NAMED 1882-03-12 03:00:00 NR -15.1300 62.1902 spur-split 735 702 _____P________ -1 -15.1300 62.1902 99 5 198
1882070S14063 1882 13 SI MM NOT_NAMED 1882-03-12 06:00:00 NR -15.4000 62.1000 reunion spur-split 702 670 _____O________ -1 -15.4000 62.1000 99 9.90000 6 197
1882070S14063 1882 13 SI MM NOT_NAMED 1882-03-12 09:00:00 NR -15.7329 61.9923 spur-split 670 630 _____P________ -1 -15.7329 61.9923 99 8 197
1882070S14063 1882 13 SI MM NOT_NAMED 1882-03-12 12:00:00 NR -16.1201 61.8705 spur-split 630 583 _____P________ -1 -16.1201 61.8705 99 9 197
1882070S14063 1882 13 SI MM NOT_NAMED 1882-03-12 15:00:00 NR -16.5492 61.7391 spur-split 583 537 _____P________ -1 -16.5492 61.7391 99 9 196
1882070S14063 1882 13 SI MM NOT_NAMED 1882-03-12 18:00:00 NR -17.0082 61.6026 spur-split 537 494 _____P________ -1 -17.0082 61.6026 99 10 196
1882070S14063 1882 13 SI MM NOT_NAMED 1882-03-12 21:00:00 NR -17.4849 61.4657 spur-split 494 451 _____P________ -1 -17.4849 61.4657 99 10 195
1882070S14063 1882 13 SI MM NOT_NAMED 1882-03-13 00:00:00 NR -17.9672 61.3330 spur-split 445 413 _____P________ -1 -17.9672 61.3330 99 10 194
1882070S14063 1882 13 SI MM NOT_NAMED 1882-03-13 03:00:00 NR -18.4429 61.2095 spur-split 413 379 _____P________ -1 -18.4429 61.2095 99 10 193
1882070S14063 1882 13 SI MM NOT_NAMED 1882-03-13 06:00:00 NR -18.9000 61.1000 reunion spur-split 379 356 _____O________ -1 -18.9000 61.1000 99 9.90000 9 195
1882070S14063 1882 13 SI MM NOT_NAMED 1882-03-13 09:00:00 NR -19.2691 60.9756 spur-split 352 333 _____P________ -1 -19.2691 60.9756 99 8 197
1882070S14063 1882 13 SI MM NOT_NAMED 1882-03-13 12:00:00 NR -19.6229 60.8582 spur-split 333 316 _____P________ -1 -19.6229 60.8582 99 7 197
1882070S14063 1882 13 SI MM NOT_NAMED 1882-03-13 15:00:00 NR -19.9682 60.7550 spur-split 314 302 _____P________ -1 -19.9682 60.7550 99 7 194
1882070S14063 1882 13 SI MM NOT_NAMED 1882-03-13 18:00:00 NR -20.3115 60.6729 spur-split 302 292 _____P________ -1 -20.3115 60.6729 99 7 190
1882070S14063 1882 13 SI MM NOT_NAMED 1882-03-13 21:00:00 NR -20.6597 60.6191 spur-split 295 295 _____P________ -1 -20.6597 60.6191 99 7 185
1882070S14063 1882 13 SI MM NOT_NAMED 1882-03-14 00:00:00 NR -21.0194 60.6009 spur-split 301 301 _____P________ -1 -21.0194 60.6009 99 7 178
1882070S14063 1882 13 SI MM NOT_NAMED 1882-03-14 03:00:00 NR -21.3972 60.6254 spur-split 315 315 _____P________ -1 -21.3972 60.6254 99 8 174
1882070S14063 1882 13 SI MM NOT_NAMED 1882-03-14 06:00:00 NR -21.8000 60.7000 reunion spur-split 343 343 _____O________ -1 -21.8000 60.7000 99 9.90000 10 167
1882070S14063 1882 13 SI MM NOT_NAMED 1882-03-14 09:00:00 NR -22.3223 60.8639 spur-split 387 387 _____P________ -1 -22.3223 60.8639 99 11 162
1882070S14063 1882 13 SI MM NOT_NAMED 1882-03-14 12:00:00 NR -22.8768 61.0840 spur-split 441 441 _____P________ -1 -22.8768 61.0840 99 12 158
1882070S14063 1882 13 SI MM NOT_NAMED 1882-03-14 15:00:00 NR -23.4443 61.3466 spur-split 492 492 _____P________ -1 -23.4443 61.3466 99 12 156
1882070S14063 1882 13 SI MM NOT_NAMED 1882-03-14 18:00:00 NR -24.0053 61.6380 spur-split 560 560 _____P________ -1 -24.0053 61.6380 99 12 154
1882070S14063 1882 13 SI MM NOT_NAMED 1882-03-14 21:00:00 NR -24.5406 61.9440 spur-split 621 621 _____P________ -1 -24.5406 61.9440 99 12 151
1882070S14063 1882 13 SI MM NOT_NAMED 1882-03-15 00:00:00 NR -25.0308 62.2498 spur-split 682 682 _____P________ -1 -25.0308 62.2498 99 11 150
1882070S14063 1882 13 SI MM NOT_NAMED 1882-03-15 03:00:00 NR -25.4569 62.5403 spur-split 743 743 _____P________ -1 -25.4569 62.5403 99 9 147
1882070S14063 1882 13 SI MM NOT_NAMED 1882-03-15 06:00:00 NR -25.8000 62.8000 reunion spur-split 788 788 _____O________ -1 -25.8000 62.8000 99 9.90000 7 144
1882070S14063 1882 13 SI MM NOT_NAMED 1882-03-15 09:00:00 NR -26.0466 63.0168 spur-split 818 818 _____P________ -1 -26.0466 63.0168 99 5 139
1882070S14063 1882 13 SI MM NOT_NAMED 1882-03-15 12:00:00 NR -26.2045 63.1923 spur-split 848 848 _____P________ -1 -26.2045 63.1923 99 4 130
1882070S14063 1882 13 SI MM NOT_NAMED 1882-03-15 15:00:00 NR -26.2863 63.3322 spur-split 863 863 _____P________ -1 -26.2863 63.3322 99 2 114
1882070S14063 1882 13 SI MM NOT_NAMED 1882-03-15 18:00:00 NR -26.3048 63.4420 spur-split 870 870 _____P________ -1 -26.3048 63.4420 99 2 86
1882070S14063 1882 13 SI MM NOT_NAMED 1882-03-15 21:00:00 NR -26.2729 63.5278 spur-split 877 876 _____P________ -1 -26.2729 63.5278 99 2 54
1882070S14063 1882 13 SI MM NOT_NAMED 1882-03-16 00:00:00 NR -26.2030 63.5953 spur-split 876 868 _____P________ -1 -26.2030 63.5953 99 2 33
1882070S14063 1882 13 SI MM NOT_NAMED 1882-03-16 03:00:00 NR -26.1078 63.6507 spur-split 875 867 _____P________ -1 -26.1078 63.6507 99 2 25
1882070S14063 1882 13 SI MM NOT_NAMED 1882-03-16 06:00:00 NR -26.0000 63.7000 reunion spur-split 867 _____O________ -1 -26.0000 63.7000 99 9.90000 2 16

About IBTrACS Database

This database is a web-friendly format of International Best Track Archive for Climate Stewardship (IBTrACS), a global best track data archive curated by NOAA dating back to 1842.

Updated: 2021-10-08